CheckWX is a tool to help pilots better visualize weather data.  It is not intended as a substitute for an official pre-flight weather briefing.

20:34:16 UTC

KHYS TAF
Hays Regional Airport
Hays, Kansas, USA
KHYS 221744Z 2218/2318 16011KT P6SM BKN110 FM222100 14015G23KT P6SM VCSH OVC200 FM230200 13016KT P6SM -SHRA OVC070 FM230800 13017KT 5SM -SHRA OVC026 FM231200 12015G23KT P6SM VCSH OVC007

Mar-22@
18:00 UTC

Mar-22 @ 18:00 UTC

Mar-22@
21:00 UTC

Mar-22 @ 21:00 UTC

KHYS 221744Z 2218/2318 16011KT P6SM BKN110
Wind
  • 160° at 11 KTS
Cloud Levels
  • Broken at 11,000' AGL

Mar-22@
21:00 UTC

Mar-22 @ 21:00 UTC

Mar-23@
02:00 UTC

Mar-23 @ 02:00 UTC

FM222100 14015G23KT P6SM VCSH OVC200

From

From Standard forecast or significant change

Wind
  • 140° at 15 KTS
  • {Gusting to 23 KTS
Cloud Levels
  • Overcast at 20,000' AGL

Mar-23@
02:00 UTC

Mar-23 @ 02:00 UTC

Mar-23@
08:00 UTC

Mar-23 @ 08:00 UTC

FM230200 13016KT P6SM -SHRA OVC070

From

From Standard forecast or significant change

Wind
  • 130° at 16 KTS
Conditions
Light Rain
Cloud Levels
  • Overcast at 7,000' AGL

Mar-23@
08:00 UTC

Mar-23 @ 08:00 UTC

Mar-23@
12:00 UTC

Mar-23 @ 12:00 UTC

FM230800 13017KT 5SM -SHRA OVC026

From

From Standard forecast or significant change

Wind
  • 130° at 17 KTS
Conditions
Light Rain
Cloud Levels
  • Overcast at 2,600' AGL

Mar-23@
12:00 UTC

Mar-23 @ 12:00 UTC

Mar-23@
18:00 UTC

Mar-23 @ 18:00 UTC

FM231200 12015G23KT P6SM VCSH OVC007

From

From Standard forecast or significant change

Wind
  • 120° at 15 KTS
  • {Gusting to 23 KTS
Cloud Levels
  • Overcast at 700' AGL